• Join FlightAware (Why Join?)
  • Login
  • US Flag 
05:51AM EDT


 

Airport Tracker/Info


-or-


 

Live Flight TrackerFlight Track Log ✈ N79470 ✈ 04-Oct-2013 ✈ KHPN - KMVL

Flight Track Log - Related Links

Times and Time Zones

All times are in EDT time to prevent confusion due to time zone crossing. See the N79470 flight status page for this flight to view local times or setup timezone preferences in your user account.

Time Position Orientation Groundspeed Altitude Reporting Facility
EDT Latitude Longitude Course Direction KTS MPH feet Rate Location/Type
04:12PM 43.2964 -73.1475 14° North 104 120 11,800  Level Boston Center
04:13PM 43.3297 -73.1364 14° North 111 128 11,400 -420 Descending Boston Center
04:14PM 43.3592 -73.1197 22° Northeast 111 128 11,000 -240 Descending Boston Center
04:15PM 43.3906 -73.1058 18° North 111 128 11,000  Level Boston Center
04:16PM 43.4156 -73.0947 18° North 106 122 11,000  Level Boston Center
04:17PM 43.4447 -73.0836 15° North 106 122 11,000  Level Boston Center
04:18PM 43.4719 -73.0722 17° North 106 122 11,100  Climbing Boston Center
04:19PM 43.4992 -73.0639 13° North 106 122 11,100  Level Boston Center
04:20PM 43.5283 -73.0528 15° North 106 122 11,200  Climbing Boston Center
04:21PM 43.5575 -73.0417 15° North 106 122 11,100 -120 Descending Boston Center
04:22PM 43.5867 -73.0306 15° North 106 122 11,000 -60 Descending Boston Center
04:23PM 43.6119 -73.0194 18° North 106 122 11,000 -120 Level Boston Center
04:24PM 43.6389 -73.0167 North 101 116 10,800 -360 Descending Boston Center
04:25PM 43.6703 -72.9997 21° North 101 116 10,300 -600 Descending Boston Center
04:26PM 43.6994 -72.9828 23° Northeast 111 128 9,700 -600 Descending Boston Center
04:27PM 43.7308 -72.9717 14° North 111 128 9,200 -420 Descending Boston Center
04:28PM 43.7622 -72.9633 11° North 111 128 8,900 -480 Descending Boston Center
04:29PM 43.7933 -72.9550 11° North 111 128 8,300 -540 Descending Boston Center
04:30PM 43.8186 -72.9378 26° Northeast 100 115 7,900 -240 Descending Boston Center
04:31PM 43.8478 -72.9236 19° North 106 122 7,900  Level Boston Center
04:32PM 43.8792 -72.9094 18° North 112 129 7,900  Level Boston Center
04:33PM 43.9083 -72.8983 15° North 107 123 7,900 -120 Level Boston Center
04:34PM 43.9394 -72.8869 15° North 107 123 7,700  Descending Boston Center
04:35PM 43.9708 -72.8728 18° North 107 123 7,900  Climbing Boston Center
04:36PM 44.0022 -72.8644 11° North 107 123 7,800  Descending Boston Center
04:37PM 44.0272 -72.8500 23° Northeast 107 123 7,900  Climbing Boston Center
04:38PM 44.0544 -72.8417 12° North 101 116 7,900 -60 Level Boston Center
04:39PM 44.0836 -72.8272 20° North 106 122 7,800 -240 Descending Boston Center
04:40PM 44.1150 -72.8131 18° North 106 122 7,500 -480 Descending Boston Center
04:41PM 44.1483 -72.7989 17° North 112 129 6,900 -600 Descending Boston Center
04:42PM 44.1817 -72.7817 20° North 117 135 6,400 -600 Descending Boston Center
04:43PM 44.2150 -72.7675 17° North 124 143 5,800 -780 Descending Boston Center
04:44PM 44.2483 -72.7589 10° North 124 143 4,900 -900 Descending Boston Center
04:45PM 44.2817 -72.7475 14° North 124 143 4,100 -660 Descending Boston Center
04:46PM 44.3131 -72.7417 North 124 143 3,600 -540 Descending Boston Center